sensor_id;sensor_type;location;lat;lon;timestamp;P1;durP1;ratioP1;P2;durP2;ratioP2
3547;SDS011;1788;49.400;11.092;2023-06-19T00:01:09;14.40;;;11.13;;
3547;SDS011;1788;49.400;11.092;2023-06-19T00:03:36;10.53;;;9.93;;
3547;SDS011;1788;49.400;11.092;2023-06-19T00:06:05;11.00;;;10.23;;
3547;SDS011;1788;49.400;11.092;2023-06-19T00:08:30;12.87;;;10.63;;
3547;SDS011;1788;49.400;11.092;2023-06-19T00:10:56;15.43;;;10.70;;
3547;SDS011;1788;49.400;11.092;2023-06-19T00:13:23;13.87;;;10.10;;
3547;SDS011;1788;49.400;11.092;2023-06-19T00:15:50;12.30;;;9.97;;
3547;SDS011;1788;49.400;11.092;2023-06-19T00:18:16;9.90;;;9.40;;
3547;SDS011;1788;49.400;11.092;2023-06-19T00:20:44;13.67;;;10.73;;
3547;SDS011;1788;49.400;11.092;2023-06-19T00:23:10;9.43;;;8.97;;
3547;SDS011;1788;49.400;11.092;2023-06-19T00:25:37;12.80;;;9.83;;
3547;SDS011;1788;49.400;11.092;2023-06-19T00:28:04;10.70;;;9.10;;
3547;SDS011;1788;49.400;11.092;2023-06-19T00:30:31;11.90;;;9.47;;
3547;SDS011;1788;49.400;11.092;2023-06-19T00:32:58;9.53;;;8.97;;
3547;SDS011;1788;49.400;11.092;2023-06-19T00:35:25;10.67;;;9.33;;
3547;SDS011;1788;49.400;11.092;2023-06-19T00:37:51;10.70;;;9.23;;
3547;SDS011;1788;49.400;11.092;2023-06-19T00:40:21;12.50;;;10.43;;
3547;SDS011;1788;49.400;11.092;2023-06-19T00:42:45;13.33;;;9.80;;
3547;SDS011;1788;49.400;11.092;2023-06-19T00:45:12;12.03;;;9.50;;
3547;SDS011;1788;49.400;11.092;2023-06-19T00:47:39;12.63;;;9.90;;
3547;SDS011;1788;49.400;11.092;2023-06-19T00:50:05;11.70;;;9.70;;
3547;SDS011;1788;49.400;11.092;2023-06-19T00:52:33;13.53;;;9.07;;
3547;SDS011;1788;49.400;11.092;2023-06-19T00:54:59;10.27;;;9.13;;
3547;SDS011;1788;49.400;11.092;2023-06-19T00:57:27;10.70;;;9.07;;
3547;SDS011;1788;49.400;11.092;2023-06-19T00:59:53;11.47;;;9.67;;
3547;SDS011;1788;49.400;11.092;2023-06-19T01:02:21;13.27;;;9.17;;
3547;SDS011;1788;49.400;11.092;2023-06-19T01:04:47;11.13;;;10.03;;
3547;SDS011;1788;49.400;11.092;2023-06-19T01:07:15;12.77;;;9.90;;
3547;SDS011;1788;49.400;11.092;2023-06-19T01:09:44;14.57;;;10.40;;
3547;SDS011;1788;49.400;11.092;2023-06-19T01:12:12;11.27;;;10.20;;
3547;SDS011;1788;49.400;11.092;2023-06-19T01:14:37;14.07;;;10.50;;
3547;SDS011;1788;49.400;11.092;2023-06-19T01:17:02;13.17;;;10.63;;
3547;SDS011;1788;49.400;11.092;2023-06-19T01:19:30;10.13;;;9.50;;
3547;SDS011;1788;49.400;11.092;2023-06-19T01:21:56;12.07;;;10.67;;
3547;SDS011;1788;49.400;11.092;2023-06-19T01:24:24;15.67;;;11.90;;
3547;SDS011;1788;49.400;11.092;2023-06-19T01:26:50;10.93;;;10.07;;
3547;SDS011;1788;49.400;11.092;2023-06-19T01:29:18;15.70;;;10.27;;
3547;SDS011;1788;49.400;11.092;2023-06-19T01:34:12;12.77;;;9.63;;
3547;SDS011;1788;49.400;11.092;2023-06-19T01:36:38;13.87;;;10.37;;
3547;SDS011;1788;49.400;11.092;2023-06-19T01:39:05;12.43;;;10.57;;
3547;SDS011;1788;49.400;11.092;2023-06-19T01:41:31;12.03;;;10.37;;
3547;SDS011;1788;49.400;11.092;2023-06-19T01:43:58;13.07;;;10.23;;
3547;SDS011;1788;49.400;11.092;2023-06-19T01:46:25;12.70;;;10.80;;
3547;SDS011;1788;49.400;11.092;2023-06-19T01:48:51;12.00;;;9.50;;
3547;SDS011;1788;49.400;11.092;2023-06-19T01:51:18;13.27;;;9.80;;
3547;SDS011;1788;49.400;11.092;2023-06-19T01:53:44;9.60;;;9.10;;
3547;SDS011;1788;49.400;11.092;2023-06-19T01:56:11;10.80;;;9.50;;
3547;SDS011;1788;49.400;11.092;2023-06-19T01:58:38;12.33;;;9.97;;
3547;SDS011;1788;49.400;11.092;2023-06-19T02:01:05;11.83;;;9.50;;
3547;SDS011;1788;49.400;11.092;2023-06-19T02:03:32;14.43;;;10.80;;
3547;SDS011;1788;49.400;11.092;2023-06-19T02:05:59;15.53;;;10.50;;
3547;SDS011;1788;49.400;11.092;2023-06-19T02:08:26;13.60;;;10.53;;
3547;SDS011;1788;49.400;11.092;2023-06-19T02:10:53;15.47;;;10.40;;
3547;SDS011;1788;49.400;11.092;2023-06-19T02:13:20;11.90;;;10.23;;
3547;SDS011;1788;49.400;11.092;2023-06-19T02:15:47;12.17;;;10.30;;
3547;SDS011;1788;49.400;11.092;2023-06-19T02:18:14;13.40;;;10.97;;
3547;SDS011;1788;49.400;11.092;2023-06-19T02:20:40;11.70;;;10.07;;
3547;SDS011;1788;49.400;11.092;2023-06-19T02:23:08;14.70;;;11.27;;
3547;SDS011;1788;49.400;11.092;2023-06-19T02:25:34;11.03;;;10.43;;
3547;SDS011;1788;49.400;11.092;2023-06-19T02:28:02;13.63;;;10.60;;
3547;SDS011;1788;49.400;11.092;2023-06-19T02:30:28;13.03;;;10.70;;
3547;SDS011;1788;49.400;11.092;2023-06-19T02:32:56;13.30;;;10.57;;
3547;SDS011;1788;49.400;11.092;2023-06-19T02:35:22;14.03;;;10.70;;
3547;SDS011;1788;49.400;11.092;2023-06-19T02:37:50;11.80;;;10.67;;
3547;SDS011;1788;49.400;11.092;2023-06-19T02:40:16;12.67;;;10.33;;
3547;SDS011;1788;49.400;11.092;2023-06-19T02:42:44;10.33;;;9.63;;
3547;SDS011;1788;49.400;11.092;2023-06-19T02:45:10;14.57;;;10.60;;
3547;SDS011;1788;49.400;11.092;2023-06-19T02:47:38;13.13;;;9.63;;
3547;SDS011;1788;49.400;11.092;2023-06-19T02:50:05;12.00;;;10.00;;
3547;SDS011;1788;49.400;11.092;2023-06-19T02:52:32;12.83;;;10.23;;
3547;SDS011;1788;49.400;11.092;2023-06-19T02:55:00;11.73;;;9.70;;
3547;SDS011;1788;49.400;11.092;2023-06-19T02:57:26;10.97;;;9.57;;
3547;SDS011;1788;49.400;11.092;2023-06-19T02:59:53;12.70;;;9.23;;
3547;SDS011;1788;49.400;11.092;2023-06-19T03:02:19;11.63;;;9.93;;
3547;SDS011;1788;49.400;11.092;2023-06-19T03:04:47;12.27;;;9.27;;
3547;SDS011;1788;49.400;11.092;2023-06-19T03:07:13;11.40;;;8.80;;
3547;SDS011;1788;49.400;11.092;2023-06-19T03:09:41;9.87;;;9.07;;
3547;SDS011;1788;49.400;11.092;2023-06-19T03:12:08;10.30;;;9.80;;
3547;SDS011;1788;49.400;11.092;2023-06-19T03:14:35;12.87;;;9.47;;
3547;SDS011;1788;49.400;11.092;2023-06-19T03:17:01;12.00;;;9.90;;
3547;SDS011;1788;49.400;11.092;2023-06-19T03:19:29;14.30;;;11.00;;
3547;SDS011;1788;49.400;11.092;2023-06-19T03:21:55;12.13;;;9.40;;
3547;SDS011;1788;49.400;11.092;2023-06-19T03:24:23;11.10;;;9.40;;
3547;SDS011;1788;49.400;11.092;2023-06-19T03:26:49;12.80;;;9.20;;
3547;SDS011;1788;49.400;11.092;2023-06-19T03:29:16;12.67;;;9.77;;
3547;SDS011;1788;49.400;11.092;2023-06-19T03:31:43;15.17;;;9.90;;
3547;SDS011;1788;49.400;11.092;2023-06-19T03:34:09;11.97;;;9.63;;
3547;SDS011;1788;49.400;11.092;2023-06-19T03:36:36;14.17;;;10.30;;
3547;SDS011;1788;49.400;11.092;2023-06-19T03:39:03;12.60;;;10.50;;
3547;SDS011;1788;49.400;11.092;2023-06-19T03:41:30;11.13;;;9.33;;
3547;SDS011;1788;49.400;11.092;2023-06-19T03:43:57;12.40;;;9.00;;
3547;SDS011;1788;49.400;11.092;2023-06-19T03:46:24;11.00;;;9.77;;
3547;SDS011;1788;49.400;11.092;2023-06-19T03:48:50;12.73;;;9.77;;
3547;SDS011;1788;49.400;11.092;2023-06-19T03:51:17;13.07;;;9.87;;
3547;SDS011;1788;49.400;11.092;2023-06-19T03:53:44;12.03;;;9.30;;
3547;SDS011;1788;49.400;11.092;2023-06-19T03:56:11;11.57;;;9.60;;
3547;SDS011;1788;49.400;11.092;2023-06-19T03:58:37;13.20;;;9.63;;
3547;SDS011;1788;49.400;11.092;2023-06-19T04:01:04;11.83;;;9.47;;
3547;SDS011;1788;49.400;11.092;2023-06-19T04:03:31;10.23;;;9.40;;
3547;SDS011;1788;49.400;11.092;2023-06-19T04:05:57;12.27;;;9.87;;
3547;SDS011;1788;49.400;11.092;2023-06-19T04:08:25;15.10;;;9.23;;
3547;SDS011;1788;49.400;11.092;2023-06-19T04:10:53;14.30;;;10.23;;
3547;SDS011;1788;49.400;11.092;2023-06-19T04:13:19;12.03;;;8.93;;
3547;SDS011;1788;49.400;11.092;2023-06-19T04:15:47;12.23;;;9.57;;
3547;SDS011;1788;49.400;11.092;2023-06-19T04:18:13;12.17;;;10.13;;
3547;SDS011;1788;49.400;11.092;2023-06-19T04:20:41;11.73;;;9.87;;
3547;SDS011;1788;49.400;11.092;2023-06-19T04:23:08;11.27;;;9.67;;
3547;SDS011;1788;49.400;11.092;2023-06-19T04:25:34;12.27;;;9.50;;
3547;SDS011;1788;49.400;11.092;2023-06-19T04:28:01;13.27;;;10.90;;
3547;SDS011;1788;49.400;11.092;2023-06-19T04:30:29;12.20;;;10.03;;
3547;SDS011;1788;49.400;11.092;2023-06-19T04:32:55;16.03;;;10.23;;
3547;SDS011;1788;49.400;11.092;2023-06-19T04:35:22;12.00;;;9.57;;
3547;SDS011;1788;49.400;11.092;2023-06-19T04:37:49;12.93;;;9.80;;
3547;SDS011;1788;49.400;11.092;2023-06-19T04:40:16;13.53;;;10.13;;
3547;SDS011;1788;49.400;11.092;2023-06-19T04:42:43;12.53;;;9.67;;
3547;SDS011;1788;49.400;11.092;2023-06-19T04:45:10;10.90;;;10.00;;
3547;SDS011;1788;49.400;11.092;2023-06-19T04:47:37;12.23;;;10.27;;
3547;SDS011;1788;49.400;11.092;2023-06-19T04:50:05;11.67;;;10.03;;
3547;SDS011;1788;49.400;11.092;2023-06-19T04:52:31;14.40;;;10.23;;
3547;SDS011;1788;49.400;11.092;2023-06-19T04:54:58;12.20;;;9.57;;
3547;SDS011;1788;49.400;11.092;2023-06-19T04:57:25;14.30;;;10.17;;
3547;SDS011;1788;49.400;11.092;2023-06-19T04:59:52;12.90;;;10.13;;
3547;SDS011;1788;49.400;11.092;2023-06-19T05:02:20;14.13;;;10.07;;
3547;SDS011;1788;49.400;11.092;2023-06-19T05:04:47;10.27;;;9.73;;
3547;SDS011;1788;49.400;11.092;2023-06-19T05:07:14;11.53;;;9.03;;
3547;SDS011;1788;49.400;11.092;2023-06-19T05:09:41;10.77;;;9.63;;
3547;SDS011;1788;49.400;11.092;2023-06-19T05:12:09;12.73;;;9.90;;
3547;SDS011;1788;49.400;11.092;2023-06-19T05:14:35;11.70;;;9.40;;
3547;SDS011;1788;49.400;11.092;2023-06-19T05:17:01;11.07;;;9.80;;
3547;SDS011;1788;49.400;11.092;2023-06-19T05:19:28;11.70;;;9.93;;
3547;SDS011;1788;49.400;11.092;2023-06-19T05:21:55;10.87;;;10.00;;
3547;SDS011;1788;49.400;11.092;2023-06-19T05:24:21;13.00;;;10.13;;
3547;SDS011;1788;49.400;11.092;2023-06-19T05:26:48;10.53;;;9.80;;
3547;SDS011;1788;49.400;11.092;2023-06-19T05:29:15;11.37;;;9.67;;
3547;SDS011;1788;49.400;11.092;2023-06-19T05:31:41;12.97;;;10.07;;
3547;SDS011;1788;49.400;11.092;2023-06-19T05:34:08;11.63;;;9.63;;
3547;SDS011;1788;49.400;11.092;2023-06-19T05:36:35;13.37;;;10.70;;
3547;SDS011;1788;49.400;11.092;2023-06-19T05:39:02;11.77;;;9.73;;
3547;SDS011;1788;49.400;11.092;2023-06-19T05:41:29;15.30;;;9.63;;
3547;SDS011;1788;49.400;11.092;2023-06-19T05:43:56;10.33;;;9.60;;
3547;SDS011;1788;49.400;11.092;2023-06-19T05:46:23;11.83;;;9.93;;
3547;SDS011;1788;49.400;11.092;2023-06-19T05:48:50;14.67;;;9.90;;
3547;SDS011;1788;49.400;11.092;2023-06-19T05:51:16;10.53;;;9.37;;
3547;SDS011;1788;49.400;11.092;2023-06-19T05:53:43;14.10;;;10.87;;
3547;SDS011;1788;49.400;11.092;2023-06-19T05:56:10;14.60;;;11.00;;
3547;SDS011;1788;49.400;11.092;2023-06-19T05:58:36;12.27;;;9.30;;
3547;SDS011;1788;49.400;11.092;2023-06-19T06:01:04;15.80;;;10.40;;
3547;SDS011;1788;49.400;11.092;2023-06-19T06:03:30;12.37;;;9.70;;
3547;SDS011;1788;49.400;11.092;2023-06-19T06:05:58;12.87;;;9.80;;
3547;SDS011;1788;49.400;11.092;2023-06-19T06:08:24;12.30;;;10.03;;
3547;SDS011;1788;49.400;11.092;2023-06-19T06:10:52;13.33;;;9.87;;
3547;SDS011;1788;49.400;11.092;2023-06-19T06:13:18;11.13;;;9.20;;
3547;SDS011;1788;49.400;11.092;2023-06-19T06:15:46;15.17;;;11.07;;
3547;SDS011;1788;49.400;11.092;2023-06-19T06:18:12;11.30;;;9.90;;
3547;SDS011;1788;49.400;11.092;2023-06-19T06:20:40;15.07;;;10.10;;
3547;SDS011;1788;49.400;11.092;2023-06-19T06:23:06;12.90;;;11.00;;
3547;SDS011;1788;49.400;11.092;2023-06-19T06:25:34;13.00;;;11.93;;
3547;SDS011;1788;49.400;11.092;2023-06-19T06:28:00;12.17;;;10.13;;
3547;SDS011;1788;49.400;11.092;2023-06-19T06:30:27;13.50;;;10.63;;
3547;SDS011;1788;49.400;11.092;2023-06-19T06:32:54;15.33;;;10.50;;
3547;SDS011;1788;49.400;11.092;2023-06-19T06:35:21;11.20;;;9.60;;
3547;SDS011;1788;49.400;11.092;2023-06-19T06:37:48;12.43;;;11.00;;
3547;SDS011;1788;49.400;11.092;2023-06-19T06:40:16;12.50;;;10.30;;
3547;SDS011;1788;49.400;11.092;2023-06-19T06:42:42;13.77;;;10.60;;
3547;SDS011;1788;49.400;11.092;2023-06-19T06:45:09;13.30;;;9.47;;
3547;SDS011;1788;49.400;11.092;2023-06-19T06:47:36;12.10;;;9.87;;
3547;SDS011;1788;49.400;11.092;2023-06-19T06:50:04;12.23;;;9.80;;
3547;SDS011;1788;49.400;11.092;2023-06-19T06:52:30;14.57;;;10.63;;
3547;SDS011;1788;49.400;11.092;2023-06-19T06:54:58;11.13;;;9.50;;
3547;SDS011;1788;49.400;11.092;2023-06-19T06:57:24;10.63;;;10.03;;
3547;SDS011;1788;49.400;11.092;2023-06-19T06:59:52;11.47;;;9.03;;
3547;SDS011;1788;49.400;11.092;2023-06-19T07:02:18;12.43;;;9.90;;
3547;SDS011;1788;49.400;11.092;2023-06-19T07:04:46;11.27;;;9.83;;
3547;SDS011;1788;49.400;11.092;2023-06-19T07:07:14;13.20;;;10.17;;
3547;SDS011;1788;49.400;11.092;2023-06-19T07:09:41;10.53;;;9.83;;
3547;SDS011;1788;49.400;11.092;2023-06-19T07:12:08;12.90;;;9.73;;
3547;SDS011;1788;49.400;11.092;2023-06-19T07:14:35;10.87;;;8.60;;
3547;SDS011;1788;49.400;11.092;2023-06-19T07:17:02;11.27;;;9.63;;
3547;SDS011;1788;49.400;11.092;2023-06-19T07:19:29;12.37;;;8.67;;
3547;SDS011;1788;49.400;11.092;2023-06-19T07:21:56;11.90;;;8.47;;
3547;SDS011;1788;49.400;11.092;2023-06-19T07:24:23;9.00;;;7.60;;
3547;SDS011;1788;49.400;11.092;2023-06-19T07:26:50;8.90;;;7.17;;
3547;SDS011;1788;49.400;11.092;2023-06-19T07:29:17;11.23;;;6.90;;
3547;SDS011;1788;49.400;11.092;2023-06-19T07:31:45;9.93;;;7.13;;
3547;SDS011;1788;49.400;11.092;2023-06-19T07:34:12;8.47;;;6.00;;
3547;SDS011;1788;49.400;11.092;2023-06-19T07:36:38;5.70;;;4.13;;
3547;SDS011;1788;49.400;11.092;2023-06-19T07:39:05;6.50;;;4.40;;
3547;SDS011;1788;49.400;11.092;2023-06-19T07:41:31;3.97;;;3.60;;
3547;SDS011;1788;49.400;11.092;2023-06-19T07:43:59;4.83;;;3.63;;
3547;SDS011;1788;49.400;11.092;2023-06-19T07:46:25;3.60;;;3.40;;
3547;SDS011;1788;49.400;11.092;2023-06-19T07:48:53;4.93;;;3.87;;
3547;SDS011;1788;49.400;11.092;2023-06-19T07:51:20;4.63;;;4.03;;
3547;SDS011;1788;49.400;11.092;2023-06-19T07:53:46;3.63;;;3.43;;
3547;SDS011;1788;49.400;11.092;2023-06-19T07:56:13;4.80;;;3.90;;
3547;SDS011;1788;49.400;11.092;2023-06-19T07:58:39;5.50;;;4.23;;
3547;SDS011;1788;49.400;11.092;2023-06-19T08:01:06;6.43;;;4.77;;
3547;SDS011;1788;49.400;11.092;2023-06-19T08:03:33;8.70;;;5.43;;
3547;SDS011;1788;49.400;11.092;2023-06-19T08:05:59;5.70;;;4.90;;
3547;SDS011;1788;49.400;11.092;2023-06-19T08:08:26;6.70;;;5.47;;
3547;SDS011;1788;49.400;11.092;2023-06-19T08:10:53;5.60;;;4.70;;
3547;SDS011;1788;49.400;11.092;2023-06-19T08:13:20;8.20;;;5.17;;
3547;SDS011;1788;49.400;11.092;2023-06-19T08:15:48;4.33;;;4.03;;
3547;SDS011;1788;49.400;11.092;2023-06-19T08:18:14;5.27;;;4.10;;
3547;SDS011;1788;49.400;11.092;2023-06-19T08:20:42;5.13;;;4.30;;
3547;SDS011;1788;49.400;11.092;2023-06-19T08:23:09;5.33;;;4.77;;
3547;SDS011;1788;49.400;11.092;2023-06-19T08:25:36;6.83;;;4.63;;
3547;SDS011;1788;49.400;11.092;2023-06-19T08:28:04;6.03;;;4.83;;
3547;SDS011;1788;49.400;11.092;2023-06-19T08:30:31;4.07;;;3.90;;
3547;SDS011;1788;49.400;11.092;2023-06-19T08:32:58;5.03;;;3.93;;
3547;SDS011;1788;49.400;11.092;2023-06-19T08:35:24;4.13;;;3.90;;
3547;SDS011;1788;49.400;11.092;2023-06-19T08:37:52;3.90;;;3.67;;
3547;SDS011;1788;49.400;11.092;2023-06-19T08:40:20;9.43;;;4.50;;
3547;SDS011;1788;49.400;11.092;2023-06-19T08:42:47;4.87;;;3.87;;
3547;SDS011;1788;49.400;11.092;2023-06-19T08:45:13;5.17;;;3.63;;
3547;SDS011;1788;49.400;11.092;2023-06-19T08:47:39;3.90;;;3.70;;
3547;SDS011;1788;49.400;11.092;2023-06-19T08:50:06;4.20;;;3.43;;
3547;SDS011;1788;49.400;11.092;2023-06-19T08:52:33;5.33;;;4.53;;
3547;SDS011;1788;49.400;11.092;2023-06-19T08:55:00;5.13;;;4.10;;
3547;SDS011;1788;49.400;11.092;2023-06-19T08:59:55;4.30;;;4.00;;
3547;SDS011;1788;49.400;11.092;2023-06-19T09:02:22;5.03;;;4.00;;
3547;SDS011;1788;49.400;11.092;2023-06-19T09:04:49;4.77;;;4.47;;
3547;SDS011;1788;49.400;11.092;2023-06-19T09:07:16;4.30;;;4.00;;
3547;SDS011;1788;49.400;11.092;2023-06-19T09:12:11;10.80;;;5.27;;
3547;SDS011;1788;49.400;11.092;2023-06-19T09:17:04;5.20;;;4.90;;
3547;SDS011;1788;49.400;11.092;2023-06-19T09:19:30;9.47;;;7.97;;
3547;SDS011;1788;49.400;11.092;2023-06-19T09:24:32;8.73;;;6.90;;
3547;SDS011;1788;49.400;11.092;2023-06-19T09:26:52;9.47;;;6.87;;
3547;SDS011;1788;49.400;11.092;2023-06-19T09:29:18;7.00;;;6.03;;
3547;SDS011;1788;49.400;11.092;2023-06-19T09:31:45;7.50;;;6.53;;
3547;SDS011;1788;49.400;11.092;2023-06-19T09:34:13;8.00;;;6.07;;
3547;SDS011;1788;49.400;11.092;2023-06-19T09:36:39;8.33;;;6.20;;
3547;SDS011;1788;49.400;11.092;2023-06-19T09:39:06;7.33;;;5.90;;
3547;SDS011;1788;49.400;11.092;2023-06-19T09:41:33;7.03;;;5.37;;
3547;SDS011;1788;49.400;11.092;2023-06-19T09:43:59;9.17;;;5.87;;
3547;SDS011;1788;49.400;11.092;2023-06-19T09:46:26;8.97;;;6.60;;
3547;SDS011;1788;49.400;11.092;2023-06-19T09:48:52;7.27;;;6.90;;
3547;SDS011;1788;49.400;11.092;2023-06-19T09:51:20;8.77;;;6.80;;
3547;SDS011;1788;49.400;11.092;2023-06-19T09:53:47;7.93;;;6.83;;
3547;SDS011;1788;49.400;11.092;2023-06-19T09:56:13;9.47;;;7.07;;
3547;SDS011;1788;49.400;11.092;2023-06-19T09:58:42;9.03;;;7.03;;
3547;SDS011;1788;49.400;11.092;2023-06-19T10:01:07;9.40;;;7.63;;
3547;SDS011;1788;49.400;11.092;2023-06-19T10:03:35;7.47;;;7.07;;
3547;SDS011;1788;49.400;11.092;2023-06-19T10:06:02;7.00;;;6.47;;
3547;SDS011;1788;49.400;11.092;2023-06-19T10:10:56;6.53;;;6.03;;
3547;SDS011;1788;49.400;11.092;2023-06-19T10:13:30;7.10;;;6.43;;
3547;SDS011;1788;49.400;11.092;2023-06-19T10:15:50;7.13;;;6.20;;
3547;SDS011;1788;49.400;11.092;2023-06-19T10:18:17;7.33;;;5.87;;
3547;SDS011;1788;49.400;11.092;2023-06-19T10:20:45;5.27;;;5.00;;
3547;SDS011;1788;49.400;11.092;2023-06-19T10:23:12;6.17;;;5.43;;
3547;SDS011;1788;49.400;11.092;2023-06-19T10:25:40;5.30;;;5.00;;
3547;SDS011;1788;49.400;11.092;2023-06-19T10:30:33;7.07;;;5.27;;
3547;SDS011;1788;49.400;11.092;2023-06-19T10:33:00;7.57;;;6.80;;
3547;SDS011;1788;49.400;11.092;2023-06-19T10:35:36;5.20;;;4.90;;
3547;SDS011;1788;49.400;11.092;2023-06-19T10:37:56;7.73;;;7.33;;
3547;SDS011;1788;49.400;11.092;2023-06-19T10:40:23;7.40;;;6.60;;
3547;SDS011;1788;49.400;11.092;2023-06-19T10:42:50;7.73;;;7.33;;
3547;SDS011;1788;49.400;11.092;2023-06-19T10:45:16;9.37;;;7.40;;
3547;SDS011;1788;49.400;11.092;2023-06-19T10:47:43;10.43;;;8.07;;
3547;SDS011;1788;49.400;11.092;2023-06-19T10:50:10;7.97;;;7.60;;
3547;SDS011;1788;49.400;11.092;2023-06-19T10:52:39;8.80;;;7.60;;
3547;SDS011;1788;49.400;11.092;2023-06-19T10:55:04;7.83;;;7.43;;
3547;SDS011;1788;49.400;11.092;2023-06-19T10:57:31;8.10;;;7.17;;
3547;SDS011;1788;49.400;11.092;2023-06-19T10:59:58;10.50;;;7.50;;
3547;SDS011;1788;49.400;11.092;2023-06-19T11:02:25;8.57;;;7.10;;
3547;SDS011;1788;49.400;11.092;2023-06-19T11:04:52;8.67;;;7.83;;
3547;SDS011;1788;49.400;11.092;2023-06-19T11:07:18;9.93;;;6.70;;
3547;SDS011;1788;49.400;11.092;2023-06-19T11:09:45;7.23;;;6.70;;
3547;SDS011;1788;49.400;11.092;2023-06-19T11:12:11;7.63;;;6.47;;
3547;SDS011;1788;49.400;11.092;2023-06-19T11:14:39;8.30;;;6.30;;
3547;SDS011;1788;49.400;11.092;2023-06-19T11:17:06;8.33;;;6.90;;
3547;SDS011;1788;49.400;11.092;2023-06-19T11:19:33;9.53;;;7.40;;
3547;SDS011;1788;49.400;11.092;2023-06-19T11:21:59;7.90;;;7.53;;
3547;SDS011;1788;49.400;11.092;2023-06-19T11:24:27;8.30;;;7.43;;
3547;SDS011;1788;49.400;11.092;2023-06-19T11:26:53;8.60;;;7.20;;
3547;SDS011;1788;49.400;11.092;2023-06-19T11:29:21;8.13;;;7.33;;
3547;SDS011;1788;49.400;11.092;2023-06-19T11:31:47;7.50;;;6.30;;
3547;SDS011;1788;49.400;11.092;2023-06-19T11:34:14;6.70;;;6.30;;
3547;SDS011;1788;49.400;11.092;2023-06-19T11:36:40;7.27;;;6.67;;
3547;SDS011;1788;49.400;11.092;2023-06-19T11:41:33;6.43;;;6.03;;
3547;SDS011;1788;49.400;11.092;2023-06-19T11:44:03;6.97;;;6.57;;
3547;SDS011;1788;49.400;11.092;2023-06-19T11:46:28;9.43;;;6.40;;
3547;SDS011;1788;49.400;11.092;2023-06-19T11:48:55;7.73;;;6.17;;
3547;SDS011;1788;49.400;11.092;2023-06-19T11:51:22;6.30;;;5.83;;
3547;SDS011;1788;49.400;11.092;2023-06-19T11:53:49;8.40;;;6.90;;
3547;SDS011;1788;49.400;11.092;2023-06-19T11:56:16;8.60;;;7.13;;
3547;SDS011;1788;49.400;11.092;2023-06-19T11:58:42;7.57;;;6.93;;
3547;SDS011;1788;49.400;11.092;2023-06-19T12:01:09;7.07;;;6.40;;
3547;SDS011;1788;49.400;11.092;2023-06-19T12:03:35;6.43;;;6.10;;
3547;SDS011;1788;49.400;11.092;2023-06-19T12:06:03;8.00;;;6.77;;
3547;SDS011;1788;49.400;11.092;2023-06-19T12:08:29;6.77;;;6.37;;
3547;SDS011;1788;49.400;11.092;2023-06-19T12:10:57;9.07;;;7.07;;
3547;SDS011;1788;49.400;11.092;2023-06-19T12:13:23;7.30;;;6.60;;
3547;SDS011;1788;49.400;11.092;2023-06-19T12:15:51;6.73;;;6.33;;
3547;SDS011;1788;49.400;11.092;2023-06-19T12:18:17;9.10;;;6.77;;
3547;SDS011;1788;49.400;11.092;2023-06-19T12:20:44;7.17;;;6.27;;
3547;SDS011;1788;49.400;11.092;2023-06-19T12:23:11;7.10;;;6.70;;
3547;SDS011;1788;49.400;11.092;2023-06-19T12:25:37;7.07;;;6.17;;
3547;SDS011;1788;49.400;11.092;2023-06-19T12:28:05;7.23;;;6.03;;
3547;SDS011;1788;49.400;11.092;2023-06-19T12:30:31;6.50;;;6.07;;
3547;SDS011;1788;49.400;11.092;2023-06-19T12:32:59;6.60;;;5.77;;
3547;SDS011;1788;49.400;11.092;2023-06-19T12:35:25;6.83;;;6.43;;
3547;SDS011;1788;49.400;11.092;2023-06-19T12:37:52;6.27;;;5.93;;
3547;SDS011;1788;49.400;11.092;2023-06-19T12:40:19;5.77;;;5.50;;
3547;SDS011;1788;49.400;11.092;2023-06-19T12:42:45;5.50;;;5.07;;
3547;SDS011;1788;49.400;11.092;2023-06-19T12:45:12;7.07;;;5.90;;
3547;SDS011;1788;49.400;11.092;2023-06-19T12:47:39;6.17;;;5.57;;
3547;SDS011;1788;49.400;11.092;2023-06-19T12:50:05;9.20;;;6.53;;
3547;SDS011;1788;49.400;11.092;2023-06-19T12:52:32;7.47;;;6.23;;
3547;SDS011;1788;49.400;11.092;2023-06-19T12:54:58;8.27;;;6.47;;
3547;SDS011;1788;49.400;11.092;2023-06-19T12:57:25;6.37;;;5.93;;
3547;SDS011;1788;49.400;11.092;2023-06-19T12:59:52;8.07;;;6.40;;
3547;SDS011;1788;49.400;11.092;2023-06-19T13:02:19;7.27;;;6.10;;
3547;SDS011;1788;49.400;11.092;2023-06-19T13:04:46;8.67;;;6.00;;
3547;SDS011;1788;49.400;11.092;2023-06-19T13:07:13;7.63;;;6.07;;
3547;SDS011;1788;49.400;11.092;2023-06-19T13:09:40;5.80;;;5.50;;
3547;SDS011;1788;49.400;11.092;2023-06-19T13:12:07;6.53;;;5.90;;
3547;SDS011;1788;49.400;11.092;2023-06-19T13:14:34;5.73;;;5.43;;
3547;SDS011;1788;49.400;11.092;2023-06-19T13:17:01;6.50;;;6.10;;
3547;SDS011;1788;49.400;11.092;2023-06-19T13:19:28;5.80;;;5.50;;
3547;SDS011;1788;49.400;11.092;2023-06-19T13:21:54;7.07;;;5.40;;
3547;SDS011;1788;49.400;11.092;2023-06-19T13:24:22;5.17;;;4.87;;
3547;SDS011;1788;49.400;11.092;2023-06-19T13:26:48;5.90;;;5.63;;
3547;SDS011;1788;49.400;11.092;2023-06-19T13:29:15;5.50;;;5.23;;
3547;SDS011;1788;49.400;11.092;2023-06-19T13:31:42;8.13;;;5.80;;
3547;SDS011;1788;49.400;11.092;2023-06-19T13:34:08;5.53;;;5.13;;
3547;SDS011;1788;49.400;11.092;2023-06-19T13:36:35;5.73;;;4.83;;
3547;SDS011;1788;49.400;11.092;2023-06-19T13:39:03;6.53;;;5.57;;
3547;SDS011;1788;49.400;11.092;2023-06-19T13:41:29;6.20;;;5.70;;
3547;SDS011;1788;49.400;11.092;2023-06-19T13:43:56;7.27;;;5.50;;
3547;SDS011;1788;49.400;11.092;2023-06-19T13:46:22;5.87;;;5.30;;
3547;SDS011;1788;49.400;11.092;2023-06-19T13:48:49;5.73;;;5.50;;
3547;SDS011;1788;49.400;11.092;2023-06-19T13:51:16;6.30;;;5.43;;
3547;SDS011;1788;49.400;11.092;2023-06-19T13:53:42;5.67;;;5.37;;
3547;SDS011;1788;49.400;11.092;2023-06-19T13:56:09;9.03;;;6.27;;
3547;SDS011;1788;49.400;11.092;2023-06-19T13:58:35;5.60;;;4.90;;
3547;SDS011;1788;49.400;11.092;2023-06-19T14:01:03;5.27;;;4.90;;
3547;SDS011;1788;49.400;11.092;2023-06-19T14:03:29;6.03;;;4.80;;
3547;SDS011;1788;49.400;11.092;2023-06-19T14:05:57;5.20;;;4.90;;
3547;SDS011;1788;49.400;11.092;2023-06-19T14:08:23;6.00;;;4.83;;
3547;SDS011;1788;49.400;11.092;2023-06-19T14:10:51;5.50;;;5.20;;
3547;SDS011;1788;49.400;11.092;2023-06-19T14:13:17;5.37;;;5.07;;
3547;SDS011;1788;49.400;11.092;2023-06-19T14:15:44;5.97;;;5.03;;
3547;SDS011;1788;49.400;11.092;2023-06-19T14:18:11;5.50;;;4.87;;
3547;SDS011;1788;49.400;11.092;2023-06-19T14:20:37;5.33;;;5.00;;
3547;SDS011;1788;49.400;11.092;2023-06-19T14:23:05;4.97;;;4.60;;
3547;SDS011;1788;49.400;11.092;2023-06-19T14:25:31;5.47;;;4.60;;
3547;SDS011;1788;49.400;11.092;2023-06-19T14:27:59;5.57;;;4.93;;
3547;SDS011;1788;49.400;11.092;2023-06-19T14:30:25;5.80;;;4.93;;
3547;SDS011;1788;49.400;11.092;2023-06-19T14:32:53;5.50;;;5.20;;
3547;SDS011;1788;49.400;11.092;2023-06-19T14:35:19;5.43;;;5.07;;
3547;SDS011;1788;49.400;11.092;2023-06-19T14:37:46;7.40;;;5.17;;
3547;SDS011;1788;49.400;11.092;2023-06-19T14:40:13;6.17;;;5.67;;
3547;SDS011;1788;49.400;11.092;2023-06-19T14:42:40;6.23;;;5.03;;
3547;SDS011;1788;49.400;11.092;2023-06-19T14:45:07;6.43;;;4.57;;
3547;SDS011;1788;49.400;11.092;2023-06-19T14:47:34;6.23;;;4.50;;
3547;SDS011;1788;49.400;11.092;2023-06-19T14:50:01;5.87;;;4.43;;
3547;SDS011;1788;49.400;11.092;2023-06-19T14:52:28;5.90;;;4.37;;
3547;SDS011;1788;49.400;11.092;2023-06-19T14:54:55;4.90;;;4.60;;
3547;SDS011;1788;49.400;11.092;2023-06-19T14:57:21;5.03;;;4.23;;
3547;SDS011;1788;49.400;11.092;2023-06-19T14:59:48;4.73;;;4.03;;
3547;SDS011;1788;49.400;11.092;2023-06-19T15:02:15;3.70;;;3.50;;
3547;SDS011;1788;49.400;11.092;2023-06-19T15:04:41;4.80;;;3.80;;
3547;SDS011;1788;49.400;11.092;2023-06-19T15:07:08;4.23;;;3.97;;
3547;SDS011;1788;49.400;11.092;2023-06-19T15:09:34;3.90;;;3.60;;